Time;durP1;ratioP1;P1;durP2;ratioP2;P2;SDS_P1;SDS_P2;PMS_P1;PMS_P2;Temp;Humidity;BMP_temperature;BMP_pressure;BME280_temperature;BME280_humidity;BME280_pressure;Samples;Min_cycle;Max_cycle;Signal;HPM_P1;HPM_P2
2023/05/31 00:01:31;;;;;;;;;;;;;;;;;;5041398;28;1144;-54
2023/05/31 00:03:56;;;;;;;;;;;;;;;;;;5043333;28;1077;-54
2023/05/31 00:06:22;;;;;;;;;;;;;;;;;;5033509;28;1042;-55
2023/05/31 00:08:47;;;;;;;;;;;;;;;;;;5032862;28;1140;-58
2023/05/31 00:11:12;;;;;;;;;;;;;;;;;;5035118;28;1086;-55
2023/05/31 00:13:38;;;;;;;;;;;;;;;;;;5012839;28;1990;-53
2023/05/31 00:16:04;;;;;;;;;;;;;;;;;;5029402;28;1172;-56
2023/05/31 00:18:29;;;;;;;;;;;;;;;;;;5028267;28;1283;-55
2023/05/31 00:20:55;;;;;;;;;;;;;;;;;;5027176;28;1529;-56
2023/05/31 00:23:20;;;;;;;;;;;;;;;;;;5040715;28;1301;-56
2023/05/31 00:25:45;;;;;;;;;;;;;;;;;;5027548;28;1156;-58
2023/05/31 00:28:10;;;;;;;;;;;;;;;;;;5033802;28;1246;-53
2023/05/31 00:30:36;;;;;;;;;;;;;;;;;;5032597;28;6515;-56
2023/05/31 00:33:01;;;;;;;;;;;;;;;;;;5029302;28;1914;-51
2023/05/31 00:35:26;;;;;;;;;;;;;;;;;;5035349;28;1132;-53
2023/05/31 00:37:51;;;;;;;;;;;;;;;;;;5032880;28;1093;-53
2023/05/31 00:40:17;;;;;;;;;;;;;;;;;;5034955;28;1046;-55
2023/05/31 00:42:42;;;;;;;;;;;;;;;;;;5031320;28;1314;-53
2023/05/31 00:45:07;;;;;;;;;;;;;;;;;;5043711;28;1124;-54
2023/05/31 00:47:33;;;;;;;;;;;;;;;;;;5024111;28;1077;-55
2023/05/31 00:49:58;;;;;;;;;;;;;;;;;;5026966;28;1152;-56
2023/05/31 00:52:24;;;;;;;;;;;;;;;;;;5019822;28;1938;-54
2023/05/31 00:54:49;;;;;;;;;;;;;;;;;;5021113;28;1171;-57
2023/05/31 00:57:14;;;;;;;;;;;;;;;;;;5030208;28;1088;-60
2023/05/31 00:59:39;;;;;;;;;;;;;;;;;;5027992;28;1142;-54
2023/05/31 01:02:05;;;;;;;;;;;;;;;;;;5009178;28;1082;-55
2023/05/31 01:04:30;;;;;;;;;;;;;;;;;;5023105;28;1039;-53
2023/05/31 01:06:56;;;;;;;;;;;;;;;;;;5015904;28;1149;-55
2023/05/31 01:09:21;;;;;;;;;;;;;;;;;;5033811;28;1125;-58
2023/05/31 01:12:05;;;;;;;;;;;;;;;;;;5016520;28;1946;-55
2023/05/31 01:14:31;;;;;;;;;;;;;;;;;;5033379;28;1151;-59
2023/05/31 01:17:04;;;;;;;;;;;;;;;;;;5031129;28;1307;-58
2023/05/31 01:19:35;;;;;;;;;;;;;;;;;;5024252;28;1121;-55
2023/05/31 01:22:14;;;;;;;;;;;;;;;;;;5029406;28;1512;-55
2023/05/31 01:24:58;;;;;;;;;;;;;;;;;;5035033;28;1088;-55
2023/05/31 01:27:23;;;;;;;;;;;;;;;;;;5048463;28;1120;-57
2023/05/31 01:29:48;;;;;;;;;;;;;;;;;;5019019;28;6433;-57
2023/05/31 01:32:14;;;;;;;;;;;;;;;;;;5013737;28;1918;-54
2023/05/31 01:34:39;;;;;;;;;;;;;;;;;;5028414;28;1160;-53
2023/05/31 01:37:05;;;;;;;;;;;;;;;;;;5032891;28;1108;-55
2023/05/31 01:39:30;;;;;;;;;;;;;;;;;;5041957;28;1164;-55
2023/05/31 01:41:55;;;;;;;;;;;;;;;;;;5036330;28;1085;-60
2023/05/31 01:44:20;;;;;;;;;;;;;;;;;;5028164;28;1317;-58
2023/05/31 01:46:46;;;;;;;;;;;;;;;;;;5025247;28;1097;-58
2023/05/31 01:49:11;;;;;;;;;;;;;;;;;;5026152;28;1117;-54
2023/05/31 01:51:37;;;;;;;;;;;;;;;;;;5019614;28;1922;-55
2023/05/31 01:54:02;;;;;;;;;;;;;;;;;;5024093;28;1160;-55
2023/05/31 01:56:28;;;;;;;;;;;;;;;;;;5036776;28;975;-52
2023/05/31 01:58:55;;;;;;;;;;;;;;;;;;5018691;28;1117;-58
2023/05/31 02:01:20;;;;;;;;;;;;;;;;;;5026429;28;1165;-55
2023/05/31 02:03:45;;;;;;;;;;;;;;;;;;5031877;28;1200;-57
2023/05/31 02:06:12;;;;;;;;;;;;;;;;;;5018925;28;1307;-53
2023/05/31 02:08:38;;;;;;;;;;;;;;;;;;5024859;28;1145;-54
2023/05/31 02:11:03;;;;;;;;;;;;;;;;;;5038192;28;1089;-56
2023/05/31 02:13:29;;;;;;;;;;;;;;;;;;5034570;28;1946;-55
2023/05/31 02:15:55;;;;;;;;;;;;;;;;;;5019786;28;1181;-54
2023/05/31 02:18:21;;;;;;;;;;;;;;;;;;5033509;28;1077;-56
2023/05/31 02:20:47;;;;;;;;;;;;;;;;;;5029548;28;1389;-60
2023/05/31 02:23:12;;;;;;;;;;;;;;;;;;5038688;28;1098;-56
2023/05/31 02:25:37;;;;;;;;;;;;;;;;;;5037636;28;1113;-53
2023/05/31 02:28:02;;;;;;;;;;;;;;;;;;5041150;28;1098;-54
2023/05/31 02:30:29;;;;;;;;;;;;;;;;;;5030632;28;6528;-53
2023/05/31 02:32:55;;;;;;;;;;;;;;;;;;5024920;28;1914;-55
2023/05/31 02:35:20;;;;;;;;;;;;;;;;;;5028017;28;1125;-50
2023/05/31 02:37:46;;;;;;;;;;;;;;;;;;5034285;28;1199;-61
2023/05/31 02:40:13;;;;;;;;;;;;;;;;;;5029409;28;1311;-57
2023/05/31 02:42:39;;;;;;;;;;;;;;;;;;5022394;28;1332;-54
2023/05/31 02:45:05;;;;;;;;;;;;;;;;;;5029307;28;1318;-54
2023/05/31 02:47:30;;;;;;;;;;;;;;;;;;5022745;28;1165;-52
2023/05/31 02:49:55;;;;;;;;;;;;;;;;;;5037727;28;1299;-57
2023/05/31 02:52:23;;;;;;;;;;;;;;;;;;5044457;28;1914;-54
2023/05/31 02:54:48;;;;;;;;;;;;;;;;;;5041414;28;1357;-56
2023/05/31 02:57:14;;;;;;;;;;;;;;;;;;5029429;28;1093;-55
2023/05/31 02:59:39;;;;;;;;;;;;;;;;;;5020222;28;1100;-52
2023/05/31 03:02:05;;;;;;;;;;;;;;;;;;5037963;28;1096;-55
2023/05/31 03:04:31;;;;;;;;;;;;;;;;;;5005586;28;1526;-51
2023/05/31 03:06:56;;;;;;;;;;;;;;;;;;5037738;28;1206;-55
2023/05/31 03:09:21;;;;;;;;;;;;;;;;;;5037472;28;981;-53
2023/05/31 03:11:47;;;;;;;;;;;;;;;;;;5036536;28;1914;-58
2023/05/31 03:14:12;;;;;;;;;;;;;;;;;;5030995;28;1100;-55
2023/05/31 03:16:37;;;;;;;;;;;;;;;;;;5027024;28;1097;-56
2023/05/31 03:19:02;;;;;;;;;;;;;;;;;;5039006;28;1061;-55
2023/05/31 03:21:27;;;;;;;;;;;;;;;;;;5030134;28;1460;-55
2023/05/31 03:23:53;;;;;;;;;;;;;;;;;;5042865;28;1144;-54
2023/05/31 03:26:18;;;;;;;;;;;;;;;;;;5033795;28;1084;-55
2023/05/31 03:28:43;;;;;;;;;;;;;;;;;;5039919;28;1164;-55
2023/05/31 03:31:08;;;;;;;;;;;;;;;;;;5032337;28;6566;-56
2023/05/31 03:33:35;;;;;;;;;;;;;;;;;;5035466;28;1988;-53
2023/05/31 03:36:01;;;;;;;;;;;;;;;;;;5040778;28;1159;-50
2023/05/31 03:38:26;;;;;;;;;;;;;;;;;;5018500;28;1093;-53
2023/05/31 03:40:51;;;;;;;;;;;;;;;;;;5014682;28;1157;-56
2023/05/31 03:43:17;;;;;;;;;;;;;;;;;;5036558;28;1062;-55
2023/05/31 03:45:42;;;;;;;;;;;;;;;;;;5034600;28;1099;-55
2023/05/31 03:48:07;;;;;;;;;;;;;;;;;;5010814;28;1236;-58
2023/05/31 03:50:32;;;;;;;;;;;;;;;;;;5029505;28;1137;-52
2023/05/31 03:52:58;;;;;;;;;;;;;;;;;;5042994;28;1910;-54
2023/05/31 03:55:25;;;;;;;;;;;;;;;;;;5034936;28;1145;-55
2023/05/31 03:57:50;;;;;;;;;;;;;;;;;;5030741;28;1144;-53
2023/05/31 04:00:15;;;;;;;;;;;;;;;;;;5037711;28;1073;-55
2023/05/31 04:02:41;;;;;;;;;;;;;;;;;;5038737;28;1237;-56
2023/05/31 04:05:07;;;;;;;;;;;;;;;;;;5022332;28;1524;-54
2023/05/31 04:07:32;;;;;;;;;;;;;;;;;;5034219;28;1065;-54
2023/05/31 04:09:58;;;;;;;;;;;;;;;;;;5029131;28;1100;-56
2023/05/31 04:12:23;;;;;;;;;;;;;;;;;;5032273;28;1904;-54
2023/05/31 04:14:48;;;;;;;;;;;;;;;;;;5045914;28;1187;-59
2023/05/31 04:17:13;;;;;;;;;;;;;;;;;;5039134;28;1093;-54
2023/05/31 04:19:39;;;;;;;;;;;;;;;;;;5039369;28;1002;-54
2023/05/31 04:22:04;;;;;;;;;;;;;;;;;;5024128;28;1421;-59
2023/05/31 04:24:29;;;;;;;;;;;;;;;;;;5029102;28;1006;-56
2023/05/31 04:26:55;;;;;;;;;;;;;;;;;;5027492;28;1097;-54
2023/05/31 04:29:21;;;;;;;;;;;;;;;;;;5026861;28;6347;-55
2023/05/31 04:31:46;;;;;;;;;;;;;;;;;;5034795;28;2003;-53
2023/05/31 04:34:17;;;;;;;;;;;;;;;;;;5035746;28;1250;-52
2023/05/31 04:36:44;;;;;;;;;;;;;;;;;;5035701;28;1175;-54
2023/05/31 04:39:14;;;;;;;;;;;;;;;;;;5030744;28;1092;-54
2023/05/31 04:41:39;;;;;;;;;;;;;;;;;;5041860;28;1215;-55
2023/05/31 04:44:05;;;;;;;;;;;;;;;;;;5029605;28;1160;-57
2023/05/31 04:46:32;;;;;;;;;;;;;;;;;;5027228;28;1109;-57
2023/05/31 04:48:57;;;;;;;;;;;;;;;;;;5026584;28;1086;-54
2023/05/31 04:51:22;;;;;;;;;;;;;;;;;;5027394;28;1531;-57
2023/05/31 04:53:48;;;;;;;;;;;;;;;;;;5043055;28;1969;-57
2023/05/31 04:56:13;;;;;;;;;;;;;;;;;;5017800;28;1263;-51
2023/05/31 04:58:39;;;;;;;;;;;;;;;;;;5038563;28;1093;-57
2023/05/31 05:01:04;;;;;;;;;;;;;;;;;;5026789;28;1204;-56
2023/05/31 05:03:29;;;;;;;;;;;;;;;;;;5032253;28;1118;-55
2023/05/31 05:05:55;;;;;;;;;;;;;;;;;;5034772;28;994;-55
2023/05/31 05:08:21;;;;;;;;;;;;;;;;;;5026493;28;1298;-54
2023/05/31 05:10:47;;;;;;;;;;;;;;;;;;5027169;28;1112;-56
2023/05/31 05:13:12;;;;;;;;;;;;;;;;;;5014994;28;1981;-56
2023/05/31 05:15:37;;;;;;;;;;;;;;;;;;5037126;28;1101;-56
2023/05/31 05:18:03;;;;;;;;;;;;;;;;;;5026599;28;1155;-55
2023/05/31 05:20:28;;;;;;;;;;;;;;;;;;5029899;28;1125;-56
2023/05/31 05:22:53;;;;;;;;;;;;;;;;;;5039082;28;1422;-53
2023/05/31 05:25:20;;;;;;;;;;;;;;;;;;5026569;28;1157;-57
2023/05/31 05:27:45;;;;;;;;;;;;;;;;;;5028698;28;1057;-54
2023/05/31 05:30:11;;;;;;;;;;;;;;;;;;5035343;28;6682;-57
2023/05/31 05:32:36;;;;;;;;;;;;;;;;;;5031919;28;1967;-56
2023/05/31 05:35:01;;;;;;;;;;;;;;;;;;5028618;28;2022;-54
2023/05/31 05:37:27;;;;;;;;;;;;;;;;;;5031955;28;1975;-55
2023/05/31 05:39:52;;;;;;;;;;;;;;;;;;5027027;28;1990;-63
2023/05/31 05:42:17;;;;;;;;;;;;;;;;;;5030437;28;2114;-58
2023/05/31 05:44:42;;;;;;;;;;;;;;;;;;5027303;28;1959;-54
2023/05/31 05:47:08;;;;;;;;;;;;;;;;;;5033188;28;2077;-55
2023/05/31 05:49:33;;;;;;;;;;;;;;;;;;5030268;28;1971;-59
2023/05/31 05:51:59;;;;;;;;;;;;;;;;;;5038503;28;1980;-54
2023/05/31 05:54:24;;;;;;;;;;;;;;;;;;5039665;28;1344;-52
2023/05/31 05:56:49;;;;;;;;;;;;;;;;;;5027908;28;1072;-52
2023/05/31 05:59:15;;;;;;;;;;;;;;;;;;5026895;28;1168;-52
2023/05/31 06:01:40;;;;;;;;;;;;;;;;;;5028006;28;1061;-50
2023/05/31 06:04:06;;;;;;;;;;;;;;;;;;5030350;28;1177;-54
2023/05/31 06:06:31;;;;;;;;;;;;;;;;;;5029987;28;1129;-54
2023/05/31 06:08:57;;;;;;;;;;;;;;;;;;5031942;28;1144;-54
2023/05/31 06:11:22;;;;;;;;;;;;;;;;;;5049808;28;1212;-52
2023/05/31 06:13:48;;;;;;;;;;;;;;;;;;5049611;28;1963;-53
2023/05/31 06:16:13;;;;;;;;;;;;;;;;;;5048644;28;1036;-55
2023/05/31 06:18:38;;;;;;;;;;;;;;;;;;5012050;28;1082;-56
2023/05/31 06:21:03;;;;;;;;;;;;;;;;;;5043716;28;1464;-54
2023/05/31 06:23:30;;;;;;;;;;;;;;;;;;5028007;28;1156;-53
2023/05/31 06:25:56;;;;;;;;;;;;;;;;;;5029453;28;1062;-52
2023/05/31 06:28:22;;;;;;;;;;;;;;;;;;5029128;28;1318;-52
2023/05/31 06:30:47;;;;;;;;;;;;;;;;;;5028934;28;6608;-55
2023/05/31 06:33:13;;;;;;;;;;;;;;;;;;5045609;28;1969;-53
2023/05/31 06:35:39;;;;;;;;;;;;;;;;;;5029456;28;940;-53
2023/05/31 06:38:05;;;;;;;;;;;;;;;;;;5029367;28;1074;-52
2023/05/31 06:40:30;;;;;;;;;;;;;;;;;;5029221;28;1110;-52
2023/05/31 06:42:55;;;;;;;;;;;;;;;;;;5029666;28;1129;-49
2023/05/31 06:45:20;;;;;;;;;;;;;;;;;;5041573;28;1137;-53
2023/05/31 06:47:46;;;;;;;;;;;;;;;;;;5049495;28;1179;-52
2023/05/31 06:50:12;;;;;;;;;;;;;;;;;;5047281;28;1100;-54
2023/05/31 06:52:38;;;;;;;;;;;;;;;;;;5047689;28;2064;-54
2023/05/31 06:55:04;;;;;;;;;;;;;;;;;;5029579;28;1280;-53
2023/05/31 06:57:29;;;;;;;;;;;;;;;;;;5029802;28;1077;-55
2023/05/31 06:59:55;;;;;;;;;;;;;;;;;;5036090;28;1093;-54
2023/05/31 07:02:21;;;;;;;;;;;;;;;;;;5028831;28;1050;-52
2023/05/31 07:04:46;;;;;;;;;;;;;;;;;;5040855;28;1428;-53
2023/05/31 07:07:11;;;;;;;;;;;;;;;;;;5030335;28;1143;-49
2023/05/31 07:09:37;;;;;;;;;;;;;;;;;;5029494;28;1065;-52
2023/05/31 07:12:02;;;;;;;;;;;;;;;;;;5019918;28;1906;-55
2023/05/31 07:14:30;;;;;;;;;;;;;;;;;;5036382;28;1200;-54
2023/05/31 07:16:56;;;;;;;;;;;;;;;;;;5028921;28;1089;-52
2023/05/31 07:19:21;;;;;;;;;;;;;;;;;;5046394;28;1284;-50
2023/05/31 07:21:46;;;;;;;;;;;;;;;;;;5041934;28;1733;-53
2023/05/31 07:24:11;;;;;;;;;;;;;;;;;;5027822;28;1147;-52
2023/05/31 07:26:37;;;;;;;;;;;;;;;;;;5029714;28;1160;-49
2023/05/31 07:29:02;;;;;;;;;;;;;;;;;;5014689;28;6363;-51
2023/05/31 07:31:27;;;;;;;;;;;;;;;;;;5030680;28;1089;-54
2023/05/31 07:33:52;;;;;;;;;;;;;;;;;;5028294;28;1971;-55
2023/05/31 07:36:18;;;;;;;;;;;;;;;;;;5027035;28;1524;-52
2023/05/31 07:38:43;;;;;;;;;;;;;;;;;;5028355;28;1221;-56
2023/05/31 07:41:09;;;;;;;;;;;;;;;;;;5036073;28;1117;-57
2023/05/31 07:43:34;;;;;;;;;;;;;;;;;;5048341;28;1072;-55
2023/05/31 07:45:59;;;;;;;;;;;;;;;;;;5042473;28;1108;-56
2023/05/31 07:48:25;;;;;;;;;;;;;;;;;;5037843;28;1068;-52
2023/05/31 07:50:50;;;;;;;;;;;;;;;;;;5027931;28;1073;-50
2023/05/31 07:53:16;;;;;;;;;;;;;;;;;;5042746;28;1909;-50
2023/05/31 07:55:41;;;;;;;;;;;;;;;;;;5027835;28;984;-50
2023/05/31 07:58:06;;;;;;;;;;;;;;;;;;5035411;28;1198;-56
2023/05/31 08:00:31;;;;;;;;;;;;;;;;;;5047543;28;1077;-56
2023/05/31 08:02:57;;;;;;;;;;;;;;;;;;5033569;28;1077;-53
2023/05/31 08:05:22;;;;;;;;;;;;;;;;;;5036910;28;1341;-52
2023/05/31 08:07:48;;;;;;;;;;;;;;;;;;5048247;28;1160;-52
2023/05/31 08:10:14;;;;;;;;;;;;;;;;;;5047754;28;1084;-53
2023/05/31 08:12:39;;;;;;;;;;;;;;;;;;5047261;28;1906;-52
2023/05/31 08:15:04;;;;;;;;;;;;;;;;;;5046824;28;1198;-51
2023/05/31 08:17:30;;;;;;;;;;;;;;;;;;5029137;28;1163;-52
2023/05/31 08:19:55;;;;;;;;;;;;;;;;;;5018153;28;1315;-53
2023/05/31 08:22:20;;;;;;;;;;;;;;;;;;5042558;28;1389;-50
2023/05/31 08:24:45;;;;;;;;;;;;;;;;;;5029525;28;1148;-53
2023/05/31 08:27:11;;;;;;;;;;;;;;;;;;5030325;28;1186;-53
2023/05/31 08:29:36;;;;;;;;;;;;;;;;;;5039095;28;6375;-54
2023/05/31 08:32:01;;;;;;;;;;;;;;;;;;5028309;28;1910;-50
2023/05/31 08:34:27;;;;;;;;;;;;;;;;;;5039139;28;1101;-53
2023/05/31 08:36:52;;;;;;;;;;;;;;;;;;5042854;28;1017;-53
2023/05/31 08:39:17;;;;;;;;;;;;;;;;;;5035001;28;1113;-53
2023/05/31 08:41:45;;;;;;;;;;;;;;;;;;5046660;28;922;-52
2023/05/31 08:44:11;;;;;;;;;;;;;;;;;;5038595;28;1250;-53
2023/05/31 08:46:36;;;;;;;;;;;;;;;;;;5026821;28;1121;-53
2023/05/31 08:49:11;;;;;;;;;;;;;;;;;;5022289;28;1153;-51
2023/05/31 08:51:36;;;;;;;;;;;;;;;;;;5013534;28;1383;-51
2023/05/31 08:54:02;;;;;;;;;;;;;;;;;;5041437;28;1964;-52
2023/05/31 08:56:27;;;;;;;;;;;;;;;;;;5015551;28;1314;-49
2023/05/31 08:58:52;;;;;;;;;;;;;;;;;;5032296;28;1152;-49
2023/05/31 09:01:18;;;;;;;;;;;;;;;;;;5032787;28;1088;-52
2023/05/31 09:03:43;;;;;;;;;;;;;;;;;;5012054;28;1196;-54
2023/05/31 09:06:08;;;;;;;;;;;;;;;;;;5014731;28;1230;-54
2023/05/31 09:08:33;;;;;;;;;;;;;;;;;;5044376;28;1080;-52
2023/05/31 09:11:00;;;;;;;;;;;;;;;;;;5047575;28;1073;-52
2023/05/31 09:13:25;;;;;;;;;;;;;;;;;;5031724;28;1969;-55
2023/05/31 09:15:50;;;;;;;;;;;;;;;;;;5045888;28;1117;-53
2023/05/31 09:18:16;;;;;;;;;;;;;;;;;;5027919;28;1157;-50
2023/05/31 09:20:42;;;;;;;;;;;;;;;;;;5033957;28;1108;-53
2023/05/31 09:23:08;;;;;;;;;;;;;;;;;;5037685;28;1566;-53
2023/05/31 09:25:46;;;;;;;;;;;;;;;;;;5014428;28;1156;-52
2023/05/31 09:28:11;;;;;;;;;;;;;;;;;;5046216;28;1264;-53
2023/05/31 09:30:37;;;;;;;;;;;;;;;;;;5031711;28;6381;-52
2023/05/31 09:33:02;;;;;;;;;;;;;;;;;;5009746;28;1914;-50
2023/05/31 09:35:27;;;;;;;;;;;;;;;;;;5033829;28;1102;-52
2023/05/31 09:37:53;;;;;;;;;;;;;;;;;;5038075;28;1124;-52
2023/05/31 09:40:24;;;;;;;;;;;;;;;;;;5041217;28;1089;-57
2023/05/31 09:42:50;;;;;;;;;;;;;;;;;;5031600;28;1081;-53
2023/05/31 09:45:16;;;;;;;;;;;;;;;;;;5047297;28;1080;-52
2023/05/31 09:47:41;;;;;;;;;;;;;;;;;;5049810;28;1234;-49
2023/05/31 09:50:16;;;;;;;;;;;;;;;;;;5050314;28;1120;-52
2023/05/31 09:52:43;;;;;;;;;;;;;;;;;;5041307;28;2008;-52
2023/05/31 09:55:08;;;;;;;;;;;;;;;;;;5031237;28;1034;-53
2023/05/31 09:57:40;;;;;;;;;;;;;;;;;;5034881;28;1040;-53
2023/05/31 10:00:12;;;;;;;;;;;;;;;;;;5019379;28;973;-52
2023/05/31 10:02:37;;;;;;;;;;;;;;;;;;5027669;28;1315;-50
2023/05/31 10:05:02;;;;;;;;;;;;;;;;;;5030934;28;1344;-54
2023/05/31 10:07:27;;;;;;;;;;;;;;;;;;5024979;28;1081;-51
2023/05/31 10:09:53;;;;;;;;;;;;;;;;;;5030431;28;1146;-53
2023/05/31 10:12:18;;;;;;;;;;;;;;;;;;5045694;28;1927;-53
2023/05/31 10:14:45;;;;;;;;;;;;;;;;;;5003659;28;1384;-52
2023/05/31 10:17:11;;;;;;;;;;;;;;;;;;5026077;28;1089;-50
2023/05/31 10:19:40;;;;;;;;;;;;;;;;;;5014904;28;1173;-54
2023/05/31 10:22:05;;;;;;;;;;;;;;;;;;5037685;28;1441;-53
2023/05/31 10:24:33;;;;;;;;;;;;;;;;;;5015640;28;1392;-54
2023/05/31 10:27:10;;;;;;;;;;;;;;;;;;5015640;28;1104;-55
2023/05/31 10:29:37;;;;;;;;;;;;;;;;;;5033523;28;6503;-54
2023/05/31 10:32:23;;;;;;;;;;;;;;;;;;5038807;28;1901;-50
2023/05/31 10:34:49;;;;;;;;;;;;;;;;;;5032230;28;1228;-56
2023/05/31 10:37:14;;;;;;;;;;;;;;;;;;5030134;28;1148;-51
2023/05/31 10:39:44;;;;;;;;;;;;;;;;;;5033399;28;1147;-51
2023/05/31 10:42:25;;;;;;;;;;;;;;;;;;5028240;28;1344;-51
2023/05/31 10:45:00;;;;;;;;;;;;;;;;;;5049686;28;1112;-54
2023/05/31 10:47:28;;;;;;;;;;;;;;;;;;5048703;28;1139;-55
2023/05/31 10:49:53;;;;;;;;;;;;;;;;;;5031186;28;1701;-58
2023/05/31 10:52:18;;;;;;;;;;;;;;;;;;5019039;28;1886;-54
2023/05/31 10:54:44;;;;;;;;;;;;;;;;;;5012344;28;1227;-55
2023/05/31 10:57:10;;;;;;;;;;;;;;;;;;5040939;28;1230;-52
2023/05/31 10:59:39;;;;;;;;;;;;;;;;;;5015751;28;1324;-51
2023/05/31 11:02:08;;;;;;;;;;;;;;;;;;5024733;28;1187;-52
2023/05/31 11:04:33;;;;;;;;;;;;;;;;;;5032950;28;1127;-54
2023/05/31 11:07:15;;;;;;;;;;;;;;;;;;5049064;28;1104;-54
2023/05/31 11:09:59;;;;;;;;;;;;;;;;;;5048989;28;1272;-53
2023/05/31 11:12:34;;;;;;;;;;;;;;;;;;5014169;28;1922;-53
2023/05/31 11:15:00;;;;;;;;;;;;;;;;;;5022826;28;1068;-54
2023/05/31 11:17:26;;;;;;;;;;;;;;;;;;5034208;28;1109;-50
2023/05/31 11:19:51;;;;;;;;;;;;;;;;;;5043598;28;1037;-56
2023/05/31 11:22:16;;;;;;;;;;;;;;;;;;5028574;28;1322;-59
2023/05/31 11:24:42;;;;;;;;;;;;;;;;;;5033534;28;1121;-53
2023/05/31 11:27:10;;;;;;;;;;;;;;;;;;5030394;28;1028;-53
2023/05/31 11:29:47;;;;;;;;;;;;;;;;;;5026779;28;7134;-52
2023/05/31 11:32:13;;;;;;;;;;;;;;;;;;5035348;28;1933;-49
2023/05/31 11:35:08;;;;;;;;;;;;;;;;;;5032586;28;1318;-54
2023/05/31 11:37:35;;;;;;;;;;;;;;;;;;5006849;28;1279;-51
2023/05/31 11:40:11;;;;;;;;;;;;;;;;;;5009241;28;1166;-52
2023/05/31 11:42:40;;;;;;;;;;;;;;;;;;5034859;28;1029;-55
2023/05/31 11:45:06;;;;;;;;;;;;;;;;;;5038407;28;1072;-56
2023/05/31 11:47:32;;;;;;;;;;;;;;;;;;5028295;28;1114;-53
2023/05/31 11:49:58;;;;;;;;;;;;;;;;;;5036850;28;1077;-51
2023/05/31 11:52:23;;;;;;;;;;;;;;;;;;5036755;28;1969;-53
2023/05/31 11:54:48;;;;;;;;;;;;;;;;;;5015132;28;1128;-54
2023/05/31 11:57:14;;;;;;;;;;;;;;;;;;5036189;28;1025;-52
2023/05/31 11:59:40;;;;;;;;;;;;;;;;;;5027910;28;1022;-52
2023/05/31 12:02:06;;;;;;;;;;;;;;;;;;5032455;28;1068;-55
2023/05/31 12:04:35;;;;;;;;;;;;;;;;;;5045526;28;1185;-53
2023/05/31 12:07:00;;;;;;;;;;;;;;;;;;5047168;28;1136;-54
2023/05/31 12:09:26;;;;;;;;;;;;;;;;;;5047280;28;1329;-53
2023/05/31 12:11:51;;;;;;;;;;;;;;;;;;5047350;28;1987;-55
2023/05/31 12:14:16;;;;;;;;;;;;;;;;;;5028811;28;1420;-52
2023/05/31 12:16:44;;;;;;;;;;;;;;;;;;5032105;28;1144;-54
2023/05/31 12:19:12;;;;;;;;;;;;;;;;;;5012567;28;1117;-60
2023/05/31 12:21:37;;;;;;;;;;;;;;;;;;5025484;28;1397;-51
2023/05/31 12:24:04;;;;;;;;;;;;;;;;;;5019072;28;1426;-55
2023/05/31 12:26:29;;;;;;;;;;;;;;;;;;5036830;28;1094;-54
2023/05/31 12:28:54;;;;;;;;;;;;;;;;;;5003113;28;6513;-53
2023/05/31 12:31:21;;;;;;;;;;;;;;;;;;4991139;28;1165;-54
2023/05/31 12:34:12;;;;;;;;;;;;;;;;;;5015474;28;1969;-54
2023/05/31 12:36:38;;;;;;;;;;;;;;;;;;4987052;28;1370;-51
2023/05/31 12:39:07;;;;;;;;;;;;;;;;;;4988057;28;1136;-57
2023/05/31 12:41:32;;;;;;;;;;;;;;;;;;4988029;28;1105;-54
2023/05/31 12:43:59;;;;;;;;;;;;;;;;;;4999372;28;1148;-53
2023/05/31 12:46:24;;;;;;;;;;;;;;;;;;4989850;28;1248;-52
2023/05/31 12:48:50;;;;;;;;;;;;;;;;;;4988559;28;1227;-53
2023/05/31 12:51:22;;;;;;;;;;;;;;;;;;4988685;28;1082;-52
2023/05/31 12:53:47;;;;;;;;;;;;;;;;;;5006834;28;1918;-56
2023/05/31 12:56:12;;;;;;;;;;;;;;;;;;4993422;28;1203;-53
2023/05/31 12:58:38;;;;;;;;;;;;;;;;;;4988584;28;1113;-54
2023/05/31 13:01:03;;;;;;;;;;;;;;;;;;4992131;28;1093;-51
2023/05/31 13:03:28;;;;;;;;;;;;;;;;;;4999397;28;1082;-56
2023/05/31 13:05:54;;;;;;;;;;;;;;;;;;4987059;28;1185;-55
2023/05/31 13:08:19;;;;;;;;;;;;;;;;;;4988981;28;1171;-56
2023/05/31 13:10:44;;;;;;;;;;;;;;;;;;4989628;28;1132;-56
2023/05/31 13:13:09;;;;;;;;;;;;;;;;;;4991957;28;1906;-58
2023/05/31 13:15:35;;;;;;;;;;;;;;;;;;5014797;28;1181;-53
2023/05/31 13:18:00;;;;;;;;;;;;;;;;;;4998664;28;1333;-51
2023/05/31 13:20:25;;;;;;;;;;;;;;;;;;5005681;28;1157;-55
2023/05/31 13:22:50;;;;;;;;;;;;;;;;;;4995338;28;1899;-52
2023/05/31 13:25:16;;;;;;;;;;;;;;;;;;4996140;28;1931;-54
2023/05/31 13:27:41;;;;;;;;;;;;;;;;;;5000025;28;1591;-49
2023/05/31 13:30:07;;;;;;;;;;;;;;;;;;5040991;28;6277;-52
2023/05/31 13:32:33;;;;;;;;;;;;;;;;;;5040103;28;1957;-55
2023/05/31 13:34:58;;;;;;;;;;;;;;;;;;5043406;28;2150;-54
2023/05/31 13:37:23;;;;;;;;;;;;;;;;;;5037530;28;2026;-65
2023/05/31 13:39:48;;;;;;;;;;;;;;;;;;5018906;28;2192;-66
2023/05/31 13:42:18;;;;;;;;;;;;;;;;;;5012199;28;1081;-67
2023/05/31 13:44:44;;;;;;;;;;;;;;;;;;5030530;28;1137;-66
2023/05/31 13:47:10;;;;;;;;;;;;;;;;;;5044535;28;1217;-66
2023/05/31 13:49:35;;;;;;;;;;;;;;;;;;5032620;28;1236;-66
2023/05/31 13:52:00;;;;;;;;;;;;;;;;;;5044029;28;1965;-66
2023/05/31 13:54:26;;;;;;;;;;;;;;;;;;5043579;28;1120;-67
2023/05/31 13:56:52;;;;;;;;;;;;;;;;;;5045977;28;1114;-66
2023/05/31 13:59:18;;;;;;;;;;;;;;;;;;5030186;28;1101;-68
2023/05/31 14:01:44;;;;;;;;;;;;;;;;;;5037597;28;1220;-65
2023/05/31 14:04:09;;;;;;;;;;;;;;;;;;5038760;28;1235;-66
2023/05/31 14:06:35;;;;;;;;;;;;;;;;;;5040389;28;1007;-66
2023/05/31 14:09:00;;;;;;;;;;;;;;;;;;5031839;28;1098;-66
2023/05/31 14:11:27;;;;;;;;;;;;;;;;;;5031458;28;1304;-67
2023/05/31 14:13:52;;;;;;;;;;;;;;;;;;5035682;28;1914;-66
2023/05/31 14:16:18;;;;;;;;;;;;;;;;;;5045886;28;1036;-65
2023/05/31 14:18:43;;;;;;;;;;;;;;;;;;5025285;28;1569;-66
2023/05/31 14:21:08;;;;;;;;;;;;;;;;;;5043895;28;1100;-66
2023/05/31 14:23:34;;;;;;;;;;;;;;;;;;5039040;28;1671;-65
2023/05/31 14:25:59;;;;;;;;;;;;;;;;;;5047470;28;1164;-66
2023/05/31 14:28:24;;;;;;;;;;;;;;;;;;5031931;28;1229;-66
2023/05/31 14:30:50;;;;;;;;;;;;;;;;;;5029135;28;6703;-65
2023/05/31 14:33:15;;;;;;;;;;;;;;;;;;5032481;28;1989;-65
2023/05/31 14:35:40;;;;;;;;;;;;;;;;;;5035239;28;955;-66
2023/05/31 14:38:05;;;;;;;;;;;;;;;;;;5024826;28;1096;-66
2023/05/31 14:40:31;;;;;;;;;;;;;;;;;;5036670;28;1147;-67
2023/05/31 14:42:56;;;;;;;;;;;;;;;;;;5031967;28;1097;-67
2023/05/31 14:45:21;;;;;;;;;;;;;;;;;;5036663;28;1074;-65
2023/05/31 14:47:46;;;;;;;;;;;;;;;;;;5029655;28;1093;-66
2023/05/31 14:50:12;;;;;;;;;;;;;;;;;;5036913;28;1289;-66
2023/05/31 14:52:37;;;;;;;;;;;;;;;;;;5045100;28;1981;-66
2023/05/31 14:55:04;;;;;;;;;;;;;;;;;;5048657;28;1140;-66
2023/05/31 14:57:29;;;;;;;;;;;;;;;;;;5028557;28;1124;-67
2023/05/31 14:59:54;;;;;;;;;;;;;;;;;;5043022;28;1423;-66
2023/05/31 15:02:19;;;;;;;;;;;;;;;;;;5038097;28;1207;-66
2023/05/31 15:04:45;;;;;;;;;;;;;;;;;;5031699;28;1156;-66
2023/05/31 15:07:11;;;;;;;;;;;;;;;;;;5026087;28;1533;-65
2023/05/31 15:09:36;;;;;;;;;;;;;;;;;;5044175;28;1120;-66
2023/05/31 15:12:02;;;;;;;;;;;;;;;;;;5028787;28;1917;-66
2023/05/31 15:14:27;;;;;;;;;;;;;;;;;;5043778;28;1093;-66
2023/05/31 15:16:52;;;;;;;;;;;;;;;;;;5034257;28;1089;-67
2023/05/31 15:19:18;;;;;;;;;;;;;;;;;;5041705;28;1171;-66
2023/05/31 15:21:43;;;;;;;;;;;;;;;;;;5030553;28;1402;-66
2023/05/31 15:24:08;;;;;;;;;;;;;;;;;;5046455;28;1033;-66
2023/05/31 15:26:33;;;;;;;;;;;;;;;;;;5035576;28;1189;-66
2023/05/31 15:29:00;;;;;;;;;;;;;;;;;;5032962;28;6841;-65
2023/05/31 15:31:26;;;;;;;;;;;;;;;;;;5025540;28;1181;-67
2023/05/31 15:33:51;;;;;;;;;;;;;;;;;;5028164;28;1926;-65
2023/05/31 15:36:16;;;;;;;;;;;;;;;;;;5016002;28;1061;-66
2023/05/31 15:38:42;;;;;;;;;;;;;;;;;;5028338;28;1082;-66
2023/05/31 15:41:07;;;;;;;;;;;;;;;;;;5044223;28;1160;-66
2023/05/31 15:43:34;;;;;;;;;;;;;;;;;;5028920;28;1089;-66
2023/05/31 15:45:59;;;;;;;;;;;;;;;;;;5011956;28;1717;-68
2023/05/31 15:48:25;;;;;;;;;;;;;;;;;;5029481;28;1157;-66
2023/05/31 15:50:50;;;;;;;;;;;;;;;;;;5027749;28;1117;-66
2023/05/31 15:53:15;;;;;;;;;;;;;;;;;;5037024;28;1938;-66
2023/05/31 15:55:42;;;;;;;;;;;;;;;;;;5028234;28;1425;-66
2023/05/31 15:58:07;;;;;;;;;;;;;;;;;;5034411;28;1014;-66
2023/05/31 16:00:32;;;;;;;;;;;;;;;;;;5038073;28;1081;-66
2023/05/31 16:02:57;;;;;;;;;;;;;;;;;;5040817;28;1120;-66
2023/05/31 16:05:23;;;;;;;;;;;;;;;;;;5031995;28;1144;-66
2023/05/31 16:07:48;;;;;;;;;;;;;;;;;;5027655;28;1117;-66
2023/05/31 16:10:14;;;;;;;;;;;;;;;;;;5042802;28;1159;-66
2023/05/31 16:12:40;;;;;;;;;;;;;;;;;;5038468;28;1898;-67
2023/05/31 16:15:05;;;;;;;;;;;;;;;;;;5027634;28;1112;-65
2023/05/31 16:17:30;;;;;;;;;;;;;;;;;;5022592;28;1258;-66
2023/05/31 16:19:56;;;;;;;;;;;;;;;;;;5043553;28;1085;-67
2023/05/31 16:22:21;;;;;;;;;;;;;;;;;;5039494;28;1386;-66
2023/05/31 16:24:46;;;;;;;;;;;;;;;;;;5030305;28;1153;-66
2023/05/31 16:27:11;;;;;;;;;;;;;;;;;;5030283;28;1228;-66
2023/05/31 16:29:37;;;;;;;;;;;;;;;;;;5032126;28;6566;-66
2023/05/31 16:32:02;;;;;;;;;;;;;;;;;;5029525;28;1926;-66
2023/05/31 16:34:28;;;;;;;;;;;;;;;;;;5027333;28;1139;-65
2023/05/31 16:36:53;;;;;;;;;;;;;;;;;;5043244;28;1364;-66
2023/05/31 16:39:18;;;;;;;;;;;;;;;;;;5041178;28;1167;-66
2023/05/31 16:41:43;;;;;;;;;;;;;;;;;;5033739;28;1174;-66
2023/05/31 16:44:09;;;;;;;;;;;;;;;;;;5026954;28;1188;-66
2023/05/31 16:46:34;;;;;;;;;;;;;;;;;;5032231;28;1146;-66
2023/05/31 16:48:59;;;;;;;;;;;;;;;;;;5030049;28;1017;-66
2023/05/31 16:51:25;;;;;;;;;;;;;;;;;;5024007;28;1443;-66
2023/05/31 16:53:51;;;;;;;;;;;;;;;;;;5028467;28;2091;-66
2023/05/31 16:56:16;;;;;;;;;;;;;;;;;;5005565;28;1141;-65